createdAt,value
2019-04-06T00:01:13.993Z,31.67
2019-04-06T00:03:43.325Z,33.10
2019-04-06T00:06:12.660Z,32.50
2019-04-06T00:08:42.021Z,31.77
2019-04-06T00:11:13.057Z,30.90
2019-04-06T00:13:42.412Z,30.70
2019-04-06T00:16:11.685Z,32.78
2019-04-06T00:18:41.019Z,32.53
2019-04-06T00:21:10.376Z,32.40
2019-04-06T00:23:39.707Z,31.77
2019-04-06T00:26:09.058Z,30.82
2019-04-06T00:28:38.411Z,29.20
2019-04-06T00:31:09.386Z,31.00
2019-04-06T00:33:38.731Z,31.75
2019-04-06T00:36:08.001Z,32.98
2019-04-06T00:38:37.418Z,34.35
2019-04-06T00:41:06.763Z,34.10
2019-04-06T00:43:36.119Z,35.80
2019-04-06T00:46:05.444Z,36.70
2019-04-06T00:48:34.793Z,36.10
2019-04-06T00:51:04.137Z,34.92
2019-04-06T00:53:33.481Z,36.10
2019-04-06T00:56:02.848Z,34.98
2019-04-06T00:58:32.173Z,36.93
2019-04-06T01:01:14.050Z,35.52
2019-04-06T01:03:43.395Z,36.25
2019-04-06T01:06:12.813Z,34.40
2019-04-06T01:08:42.155Z,35.80
2019-04-06T01:11:11.496Z,35.17
2019-04-06T01:13:40.835Z,33.20
2019-04-06T01:16:10.191Z,34.55
2019-04-06T01:18:39.531Z,33.00
2019-04-06T01:21:08.871Z,33.00
2019-04-06T01:23:38.223Z,34.10
2019-04-06T01:26:07.907Z,31.80
2019-04-06T01:28:57.711Z,34.18
2019-04-06T01:31:27.061Z,35.60
2019-04-06T01:33:59.147Z,34.65
2019-04-06T01:36:34.836Z,32.73
2019-04-06T01:39:44.330Z,35.10
2019-04-06T01:42:13.669Z,34.95
2019-04-06T01:44:42.999Z,34.33
2019-04-06T01:47:12.352Z,37.03
2019-04-06T01:49:41.696Z,34.67
2019-04-06T01:52:11.040Z,34.40
2019-04-06T01:54:40.379Z,36.30
2019-04-06T01:57:09.716Z,37.50
2019-04-06T01:59:39.059Z,35.90
2019-04-06T02:04:49.169Z,37.15
2019-04-06T02:07:18.475Z,37.23
2019-04-06T02:09:47.817Z,37.93
2019-04-06T02:12:17.176Z,36.95
2019-04-06T02:14:46.779Z,36.60
2019-04-06T02:17:16.261Z,36.15
2019-04-06T02:19:45.555Z,36.00
2019-04-06T02:22:14.891Z,38.85
2019-04-06T02:24:44.343Z,36.28
2019-04-06T02:27:13.666Z,36.15
2019-04-06T02:29:43.010Z,36.55
2019-04-06T02:32:31.481Z,35.03
2019-04-06T02:35:19.939Z,37.98
2019-04-06T02:40:47.889Z,38.38
2019-04-06T02:43:36.397Z,37.55
2019-04-06T02:46:06.057Z,38.15
2019-04-06T02:48:35.392Z,35.63
2019-04-06T02:51:04.812Z,36.60
2019-04-06T02:53:34.263Z,38.50
2019-04-06T02:56:03.827Z,38.23
2019-04-06T02:58:44.349Z,35.95
2019-04-06T03:01:13.690Z,38.53
2019-04-06T03:03:43.078Z,37.38
2019-04-06T03:06:12.497Z,36.73
2019-04-06T03:08:41.798Z,39.55
2019-04-06T03:11:11.431Z,38.48
2019-04-06T03:13:41.043Z,37.85
2019-04-06T03:16:17.067Z,36.38
2019-04-06T03:18:52.336Z,38.58
2019-04-06T03:21:21.677Z,37.13
2019-04-06T03:23:52.427Z,35.35
2019-04-06T03:26:27.552Z,38.85
2019-04-06T03:31:58.410Z,35.90
2019-04-06T03:34:40.574Z,35.95
2019-04-06T03:37:10.129Z,37.93
2019-04-06T03:39:39.784Z,37.63
2019-04-06T03:42:11.459Z,38.73
2019-04-06T03:44:46.993Z,37.98
2019-04-06T03:47:16.345Z,39.05
2019-04-06T03:49:45.679Z,36.93
2019-04-06T03:52:15.090Z,36.93
2019-04-06T03:55:14.548Z,37.83
2019-04-06T03:57:43.939Z,41.30
2019-04-06T04:00:13.225Z,38.28
2019-04-06T04:02:42.608Z,37.08
2019-04-06T04:08:13.443Z,37.10
2019-04-06T04:10:43.296Z,37.35
2019-04-06T04:13:19.490Z,37.05
2019-04-06T04:15:56.771Z,38.35
2019-04-06T04:18:35.177Z,37.28
2019-04-06T04:21:10.485Z,37.40
2019-04-06T04:23:39.832Z,35.38
2019-04-06T04:26:09.169Z,38.17
2019-04-06T04:28:38.514Z,38.20
2019-04-06T04:31:27.375Z,38.40
2019-04-06T04:33:56.679Z,35.90
2019-04-06T04:36:25.990Z,37.03
2019-04-06T04:38:55.338Z,36.98
2019-04-06T04:41:24.667Z,38.40
2019-04-06T04:44:05.979Z,36.68
2019-04-06T04:46:35.334Z,37.63
2019-04-06T04:49:04.939Z,37.45
2019-04-06T04:51:41.048Z,36.13
2019-04-06T04:54:10.384Z,37.05
2019-04-06T04:56:39.733Z,37.48
2019-04-06T04:59:09.069Z,37.73
2019-04-06T05:01:38.438Z,38.10
2019-04-06T05:04:27.098Z,41.40
2019-04-06T05:06:56.479Z,39.30
2019-04-06T05:09:25.867Z,38.88
2019-04-06T05:11:55.216Z,39.48
2019-04-06T05:15:03.956Z,39.00
2019-04-06T05:17:33.309Z,40.10
2019-04-06T05:20:02.905Z,40.85
2019-04-06T05:22:37.758Z,39.33
2019-04-06T05:28:40.994Z,38.25
2019-04-06T05:31:10.404Z,38.50
2019-04-06T05:33:39.749Z,39.20
2019-04-06T05:36:09.100Z,38.88
2019-04-06T05:38:38.660Z,38.65
2019-04-06T05:41:15.155Z,36.10
2019-04-06T05:44:03.835Z,38.15
2019-04-06T05:46:46.089Z,37.85
2019-04-06T05:49:15.437Z,38.40
2019-04-06T05:51:44.825Z,39.40
2019-04-06T05:54:14.372Z,41.75
2019-04-06T05:56:43.738Z,40.45
2019-04-06T05:59:13.085Z,38.20
2019-04-06T06:01:42.632Z,36.98
2019-04-06T06:04:32.679Z,37.95
2019-04-06T06:07:02.001Z,39.33
2019-04-06T06:09:31.272Z,37.05
2019-04-06T06:12:00.617Z,38.63
2019-04-06T06:14:29.973Z,39.05
2019-04-06T06:16:59.332Z,35.70
2019-04-06T06:19:28.919Z,37.83
2019-04-06T06:21:58.266Z,39.95
2019-04-06T06:24:27.600Z,40.20
2019-04-06T06:26:56.948Z,37.50
2019-04-06T06:29:26.285Z,40.23
2019-04-06T06:31:55.632Z,38.88
2019-04-06T06:34:24.994Z,38.15
2019-04-06T06:37:06.740Z,36.03
2019-04-06T06:39:36.040Z,37.40
2019-04-06T06:42:05.366Z,40.55
2019-04-06T06:44:34.709Z,39.37
2019-04-06T06:47:04.064Z,37.98
2019-04-06T06:49:33.604Z,37.50
2019-04-06T06:52:02.946Z,38.43
2019-04-06T06:54:32.284Z,40.80
2019-04-06T06:57:01.696Z,36.08
2019-04-06T06:59:31.042Z,38.60
2019-04-06T07:02:00.391Z,39.40
2019-04-06T07:04:30.104Z,38.20
2019-04-06T07:06:59.362Z,37.40
2019-04-06T07:09:28.698Z,36.60
2019-04-06T07:11:58.254Z,36.60
2019-04-06T07:14:37.422Z,38.63
2019-04-06T07:17:06.804Z,37.97
2019-04-06T07:19:36.109Z,40.10
2019-04-06T07:22:05.490Z,35.83
2019-04-06T07:24:34.786Z,36.37
2019-04-06T07:27:04.090Z,37.10
2019-04-06T07:29:33.503Z,39.23
2019-04-06T07:32:02.853Z,35.93
2019-04-06T07:34:32.099Z,37.43
2019-04-06T07:37:01.492Z,38.00
2019-04-06T07:39:30.815Z,38.97
2019-04-06T07:42:00.237Z,36.13
2019-04-06T07:44:30.222Z,37.53
2019-04-06T07:47:06.653Z,53.23
2019-04-06T07:49:36.081Z,42.87
2019-04-06T07:52:05.732Z,38.53
2019-04-06T07:54:42.494Z,39.03
2019-04-06T07:57:18.926Z,45.67
2019-04-06T07:59:48.268Z,39.13
2019-04-06T08:02:17.619Z,39.70
2019-04-06T08:04:46.946Z,37.43
2019-04-06T08:07:28.195Z,41.10
2019-04-06T08:09:57.529Z,39.03
2019-04-06T08:12:26.983Z,39.33
2019-04-06T08:14:57.537Z,38.80
2019-04-06T08:17:36.859Z,37.90
2019-04-06T08:23:40.245Z,37.03
2019-04-06T08:26:09.710Z,39.03
2019-04-06T08:28:39.469Z,38.40
2019-04-06T08:31:09.046Z,37.07
2019-04-06T08:33:38.773Z,41.77
2019-04-06T08:36:08.408Z,38.00
2019-04-06T08:38:37.859Z,37.83
2019-04-06T08:41:07.198Z,39.70
2019-04-06T08:43:36.607Z,38.70
2019-04-06T08:46:05.941Z,40.30
2019-04-06T08:48:35.279Z,39.33
2019-04-06T08:51:04.812Z,39.57
2019-04-06T08:53:34.301Z,38.13
2019-04-06T08:56:24.222Z,38.47
2019-04-06T08:58:53.569Z,37.60
2019-04-06T09:01:42.293Z,39.20
2019-04-06T09:04:12.001Z,39.80
2019-04-06T09:06:41.768Z,39.63
2019-04-06T09:09:22.093Z,39.73
2019-04-06T09:11:51.429Z,40.13
2019-04-06T09:14:20.881Z,38.27
2019-04-06T09:16:50.700Z,40.67
2019-04-06T09:19:20.044Z,39.30
2019-04-06T09:21:49.483Z,40.23
2019-04-06T09:24:19.218Z,39.60
2019-04-06T09:26:48.924Z,40.33
2019-04-06T09:29:23.893Z,41.90
2019-04-06T09:31:54.953Z,45.63
2019-04-06T09:34:24.281Z,40.00
2019-04-06T09:37:06.176Z,44.10
2019-04-06T09:39:35.453Z,41.30
2019-04-06T09:48:45.937Z,39.47
2019-04-06T09:51:34.337Z,38.70
2019-04-06T09:54:42.264Z,38.60
2019-04-06T09:57:30.781Z,40.67
2019-04-06T10:00:31.176Z,39.93
2019-04-06T10:03:14.716Z,39.90
2019-04-06T10:06:03.498Z,37.57
2019-04-06T10:09:11.330Z,39.47
2019-04-06T10:11:59.787Z,39.97
2019-04-06T10:17:57.332Z,38.77
2019-04-06T10:20:45.782Z,41.70
2019-04-06T10:23:34.241Z,40.20
2019-04-06T10:26:42.265Z,43.60
2019-04-06T10:29:48.877Z,38.10
2019-04-06T10:35:21.092Z,42.03
2019-04-06T10:43:45.264Z,39.03
2019-04-06T10:46:53.050Z,40.37
2019-04-06T10:49:53.753Z,39.57
2019-04-06T10:52:42.203Z,39.43
2019-04-06T10:55:30.659Z,39.23
2019-04-06T11:01:34.617Z,35.63
2019-04-06T11:04:17.376Z,33.17
2019-04-06T11:07:02.763Z,36.30
2019-04-06T11:09:51.704Z,33.27
2019-04-06T11:12:40.078Z,34.60
2019-04-06T11:15:28.763Z,35.57
2019-04-06T11:18:17.216Z,34.23
2019-04-06T11:21:25.416Z,29.60
2019-04-06T11:24:11.896Z,31.37
2019-04-06T11:26:57.974Z,33.17
2019-04-06T11:29:46.593Z,29.83
2019-04-06T11:32:54.332Z,32.60
2019-04-06T11:38:41.767Z,30.77
2019-04-06T11:41:30.314Z,32.40
2019-04-06T11:44:31.115Z,29.17
2019-04-06T11:47:19.710Z,28.37
2019-04-06T11:50:08.241Z,29.73
2019-04-06T11:52:56.612Z,27.60
2019-04-06T11:56:04.568Z,27.60
2019-04-06T11:58:53.010Z,27.87
2019-04-06T12:01:41.715Z,29.10
2019-04-06T12:04:30.401Z,30.07
2019-04-06T12:07:18.860Z,29.77
2019-04-06T12:10:07.316Z,28.07
2019-04-06T12:12:50.942Z,27.13
2019-04-06T12:15:34.621Z,28.77
2019-04-06T12:27:25.810Z,26.07
2019-04-06T12:30:14.282Z,25.93
2019-04-06T12:33:02.771Z,24.60
2019-04-06T12:35:51.258Z,25.10
2019-04-06T12:41:19.351Z,24.30
2019-04-06T12:50:02.878Z,22.27
2019-04-06T12:55:47.425Z,24.30
2019-04-06T12:58:35.898Z,24.33
2019-04-06T13:04:04.676Z,22.50
2019-04-06T13:06:53.040Z,25.57
2019-04-06T13:09:41.500Z,25.30
2019-04-06T13:15:11.992Z,22.57
2019-04-06T13:18:00.464Z,24.07
2019-04-06T13:20:48.975Z,22.63
2019-04-06T13:26:33.373Z,22.00
2019-04-06T13:29:21.824Z,21.23
2019-04-06T13:32:10.453Z,24.03
2019-04-06T13:34:59.164Z,23.60
2019-04-06T13:40:27.467Z,22.23
2019-04-06T13:43:16.203Z,23.13
2019-04-06T13:46:04.712Z,23.67
2019-04-06T13:52:02.201Z,21.63
2019-04-06T13:54:50.752Z,23.00
2019-04-06T13:57:39.183Z,22.10
2019-04-06T14:00:27.931Z,23.77
2019-04-06T14:03:16.312Z,20.60
2019-04-06T14:06:04.793Z,21.83
2019-04-06T14:11:33.435Z,23.20
2019-04-06T14:14:21.880Z,25.13
2019-04-06T14:17:10.336Z,25.07
2019-04-06T14:19:58.785Z,23.03
2019-04-06T14:22:49.006Z,23.50
2019-04-06T14:25:56.790Z,21.63
2019-04-06T14:28:45.705Z,23.97
2019-04-06T14:31:34.290Z,22.43
2019-04-06T14:34:23.035Z,22.63
2019-04-06T14:45:30.006Z,21.53
2019-04-06T14:48:18.496Z,22.37
2019-04-06T14:51:07.347Z,21.43
2019-04-06T14:56:51.365Z,22.87
2019-04-06T14:59:39.901Z,22.77
2019-04-06T15:05:09.447Z,22.20
2019-04-06T15:07:57.903Z,21.00
2019-04-06T15:10:46.592Z,22.07
2019-04-06T15:13:35.373Z,20.70
2019-04-06T15:19:19.412Z,22.10
2019-04-06T15:27:44.054Z,21.63
2019-04-06T15:33:12.521Z,21.23
2019-04-06T15:36:01.721Z,20.90
2019-04-06T15:38:50.192Z,21.03
2019-04-06T15:41:38.845Z,20.03
2019-04-06T15:44:27.570Z,19.07
2019-04-06T15:47:15.983Z,18.97
2019-04-06T15:50:04.782Z,19.63
2019-04-06T15:52:53.229Z,20.70
2019-04-06T15:55:41.726Z,18.70
2019-04-06T15:58:30.582Z,18.37
2019-04-06T16:01:19.341Z,19.33
2019-04-06T16:04:07.761Z,18.53
2019-04-06T16:06:56.331Z,19.67
2019-04-06T16:10:04.625Z,20.00
2019-04-06T16:12:53.077Z,18.13
2019-04-06T16:18:37.548Z,18.50
2019-04-06T16:21:25.997Z,19.30
2019-04-06T16:24:14.599Z,19.40
2019-04-06T16:32:39.202Z,20.10
2019-04-06T16:35:27.896Z,19.00
2019-04-06T16:38:17.005Z,19.70
2019-04-06T16:41:05.448Z,20.20
2019-04-06T16:43:54.086Z,20.80
2019-04-06T16:46:42.580Z,19.93
2019-04-06T16:49:31.380Z,19.33
2019-04-06T16:52:20.253Z,20.50
2019-04-06T16:55:09.116Z,21.73
2019-04-06T16:57:57.566Z,19.47
2019-04-06T17:03:41.484Z,19.63
2019-04-06T17:06:30.394Z,19.40
2019-04-06T17:09:18.864Z,20.70
2019-04-06T17:12:07.545Z,20.30
2019-04-06T17:14:56.244Z,20.80
2019-04-06T17:20:40.561Z,20.07
2019-04-06T17:26:38.115Z,20.90
2019-04-06T17:29:26.632Z,19.40
2019-04-06T17:32:12.436Z,21.17
2019-04-06T17:35:01.370Z,19.90
2019-04-06T17:37:49.948Z,20.43
2019-04-06T17:40:38.455Z,21.27
2019-04-06T17:43:27.014Z,20.73
2019-04-06T17:49:56.416Z,22.43
2019-04-06T17:55:41.429Z,21.83
2019-04-06T17:58:42.394Z,23.57
2019-04-06T18:01:27.828Z,22.00
2019-04-06T18:04:10.672Z,22.70
2019-04-06T18:06:59.153Z,23.43
2019-04-06T18:12:39.765Z,21.70
2019-04-06T18:15:21.612Z,22.43
2019-04-06T18:17:50.982Z,23.93
2019-04-06T18:20:20.347Z,23.17
2019-04-06T18:22:50.182Z,24.50
2019-04-06T18:25:46.151Z,28.70
2019-04-06T18:28:34.968Z,25.13
2019-04-06T18:31:41.520Z,26.67
2019-04-06T18:34:11.293Z,28.20
2019-04-06T18:37:26.024Z,28.97
2019-04-06T18:42:51.906Z,27.80
2019-04-06T18:48:23.640Z,29.23
2019-04-06T18:51:00.248Z,30.07
2019-04-06T18:53:29.853Z,31.13
2019-04-06T18:55:59.281Z,27.30
2019-04-06T18:58:28.803Z,26.43
2019-04-06T19:00:58.507Z,29.00
2019-04-06T19:03:47.330Z,26.13
2019-04-06T19:06:16.746Z,30.70
2019-04-06T19:08:46.178Z,29.77
2019-04-06T19:11:15.647Z,28.50
2019-04-06T19:13:45.533Z,29.03
2019-04-06T19:16:35.514Z,31.07
2019-04-06T19:22:38.788Z,30.33
2019-04-06T19:25:53.410Z,30.87
2019-04-06T19:28:23.140Z,28.97
2019-04-06T19:31:13.506Z,27.77
2019-04-06T19:33:54.143Z,29.30
2019-04-06T19:36:23.769Z,27.47
2019-04-06T19:38:53.241Z,27.70
2019-04-06T19:41:22.986Z,27.70
2019-04-06T19:43:58.281Z,25.37
2019-04-06T19:46:34.345Z,25.77
2019-04-06T19:49:03.878Z,27.47
2019-04-06T19:51:33.415Z,27.33
2019-04-06T19:54:09.022Z,28.87
2019-04-06T19:56:38.630Z,27.07
2019-04-06T19:59:27.733Z,29.43
2019-04-06T20:01:57.523Z,27.70
2019-04-06T20:04:47.530Z,25.10
2019-04-06T20:07:16.995Z,26.83
2019-04-06T20:09:46.534Z,27.80
2019-04-06T20:12:16.023Z,27.70
2019-04-06T20:14:45.616Z,27.47
2019-04-06T20:17:15.146Z,27.80
2019-04-06T20:19:45.430Z,26.97
2019-04-06T20:22:35.299Z,28.93
2019-04-06T20:28:38.956Z,30.60
2019-04-06T20:31:15.199Z,29.40
2019-04-06T20:33:50.154Z,30.03
2019-04-06T20:36:35.216Z,29.10
2019-04-06T20:39:11.369Z,28.70
2019-04-06T20:41:40.726Z,30.20
2019-04-06T20:44:10.057Z,28.53
2019-04-06T20:46:39.826Z,31.10
2019-04-06T20:49:15.873Z,31.60
2019-04-06T20:51:45.521Z,31.23
2019-04-06T20:54:26.190Z,31.90
2019-04-06T20:57:01.923Z,31.30
2019-04-06T20:59:31.631Z,30.80
2019-04-06T21:02:21.851Z,32.43
2019-04-06T21:04:51.279Z,32.23
2019-04-06T21:10:43.210Z,33.23
2019-04-06T21:13:12.694Z,32.50
2019-04-06T21:15:43.461Z,31.60
2019-04-06T21:18:19.069Z,33.97
2019-04-06T21:20:48.412Z,33.30
2019-04-06T21:23:18.139Z,34.30
2019-04-06T21:25:54.977Z,31.47
2019-04-06T21:28:31.129Z,30.30
2019-04-06T21:31:00.447Z,35.93
2019-04-06T21:33:29.816Z,34.90
2019-04-06T21:35:59.265Z,34.67
2019-04-06T21:38:28.587Z,32.60
2019-04-06T21:40:58.240Z,33.23
2019-04-06T21:43:34.440Z,32.73
2019-04-06T21:46:03.957Z,33.27
2019-04-06T21:48:33.461Z,36.10
2019-04-06T21:51:03.143Z,33.10
2019-04-06T21:53:32.776Z,33.80
2019-04-06T21:56:07.025Z,33.37
2019-04-06T21:58:39.242Z,30.40
2019-04-06T22:01:55.798Z,32.03
2019-04-06T22:04:26.712Z,31.30
2019-04-06T22:07:27.744Z,32.37
2019-04-06T22:09:57.084Z,33.27
2019-04-06T22:12:26.330Z,31.30
2019-04-06T22:14:55.673Z,32.80
2019-04-06T22:17:25.231Z,33.60
2019-04-06T22:20:14.021Z,33.97
2019-04-06T22:23:14.086Z,35.03
2019-04-06T22:25:50.581Z,34.87
2019-04-06T22:28:19.900Z,35.10
2019-04-06T22:30:49.681Z,34.77
2019-04-06T22:33:25.517Z,34.63
2019-04-06T22:35:55.067Z,34.00
2019-04-06T22:38:44.998Z,34.00
2019-04-06T22:41:14.367Z,34.80
2019-04-06T22:43:44.572Z,34.90
2019-04-06T22:46:20.282Z,33.07
2019-04-06T22:48:49.574Z,35.73
2019-04-06T22:51:18.857Z,35.63
2019-04-06T22:53:49.179Z,32.87
2019-04-06T22:56:38.449Z,34.50
2019-04-06T22:59:07.675Z,34.93
2019-04-06T23:01:56.096Z,36.50
2019-04-06T23:10:01.105Z,36.97
2019-04-06T23:12:51.087Z,36.47
2019-04-06T23:15:20.999Z,36.63
2019-04-06T23:17:56.792Z,40.00
2019-04-06T23:20:26.691Z,39.30
2019-04-06T23:23:02.299Z,40.30
2019-04-06T23:25:32.292Z,39.93
2019-04-06T23:28:21.776Z,40.03
2019-04-06T23:30:52.801Z,39.63
2019-04-06T23:33:22.771Z,43.80
2019-04-06T23:36:03.291Z,42.90
2019-04-06T23:38:39.534Z,41.23
2019-04-06T23:41:16.227Z,38.97
2019-04-06T23:43:52.292Z,38.60
2019-04-06T23:46:21.552Z,36.60
2019-04-06T23:48:50.883Z,36.27
2019-04-06T23:51:21.022Z,38.13
2019-04-06T23:54:10.575Z,37.67
2019-04-06T23:56:47.557Z,39.97
2019-04-06T23:59:49.927Z,38.70
